LEAMLEGR

Guest
Details From LEAM - Almeria
To LEGR - Granada
Flight Number -
Tags None
Created
Modified
Stats Distance 72 nm / 134 km
Max Altitude 5,043 ft / 1,537 m
Waypoints 6
Social Downloads 3
Likes 0
Share VATSIM

Download

Looking for another format? Having issues loading an existing format? Contact us
Advertisement - Login to hide

Notes

None

Route

LEAM +037.192_-003.281 +037.191_-003.385 +037.190_-003.552 +037.189_-003.761 LEGR

ID Type Via Altitude Latitude Longitude Leg Dist Tot Dist Heading (true) Name
O LEAM APT - 70 ft / 21 m 36.84394˚ -2.37010˚ - 0 nm - Almeria
+037.192_-003.281 LATLON - 5,043 ft / 1,537 m 37.19179˚ -3.28069˚ 48 nm 48 nm 296° / 295° -
+037.191_-003.385 LATLON - 5,043 ft / 1,537 m 37.19108˚ -3.38510˚ 4 nm 53 nm 270° / 269° -
+037.190_-003.552 LATLON - 5,043 ft / 1,537 m 37.19024˚ -3.55217˚ 7 nm 61 nm 270° / 270° -
+037.189_-003.761 LATLON - 1,859 ft / 567 m 37.18885˚ -3.76100˚ 9 nm 71 nm 270° / 269° -
O LEGR APT - 1,859 ft / 567 m 37.18873˚ -3.77736˚ 0 nm 72 nm 269° / 269° Granada

Altitude Profile

Advertisement - Login to hide

LEAM

Details ICAO LEAM (LEI)
Name Almeria
Region Spain
Timezone Unknown (UTC+0.0)
Stats Elevation 70 ft / 21 m (AMSL)
Location 36.843935° -2.370097°
Runways 1
Magnetic Variation 0.238° W

METAR

LEAM 271630Z 25021G31KT 200V270 9999 FEW010 25/13 Q1011

Decode

TAF

TAF TAF LEAM 271400Z 2715/2815 23015KT 9999 FEW030 TX24/2715Z TN17/2805Z PROB30 TEMPO 2715/2718 4000 SHRA SCT030CB PROB40 TEMPO 2715/2720 22018G30KT

Decode

Departure Runways

ID Width Length Bearing (true) Bearing (mag) Surface Threshold Offset Overrun Length
08 148 ft / 45 m 10,484 ft / 3,196 m 72.94° 73.18° Asphalt 492 ft / 150 m 191 ft / 58 m
26 148 ft / 45 m 10,484 ft / 3,196 m 252.96° 253.20° Asphalt 0 ft / 0 m 150 ft / 46 m

LEGR

Details ICAO LEGR (GRX)
Name Granada
Region Spain
Timezone Europe/Madrid (UTC+2.0)
Stats Elevation 1,859 ft / 567 m (AMSL)
Location 37.188731° -3.777359°
Runways 1
Magnetic Variation 0.626° W

METAR

LEGR 271630Z 28009KT 240V320 9999 FEW050 SCT080 20/13 Q1015

Decode

TAF

TAF LEGR 271400Z 2715/2815 26006KT 9999 SCT030 TX23/2814Z TN12/2803Z TEMPO 2715/2718 4000 SHRA SCT030TCU PROB30 TEMPO 2715/2718 2000 TSRA SCT015 SCT030CB

Decode

Destination Runways

ID Width Length Bearing (true) Bearing (mag) Surface Threshold Offset Overrun Length
09 147 ft / 45 m 9,511 ft / 2,899 m 89.46° 90.09° Asphalt 0 ft / 0 m 0 ft / 0 m
27 147 ft / 45 m 9,511 ft / 2,899 m 269.48° 270.11° Asphalt 0 ft / 0 m 0 ft / 0 m

Approach Navaids

Runway Type Ident Frequency Range Bearing (true) Bearing (mag) Slope Elevation
09 Localiser GRD 109.30 MHz 18 nm / 33 km 89.49° 90.11° - 1,859 ft / 567 m (AMSL)
09 Glidescope GRD 109.30 MHz 10 nm / 19 km 89.47° 90.10° 3.00° 1,859 ft / 567 m (AMSL)

Popular Alternatives